Time;durP1;ratioP1;P1;durP2;ratioP2;P2;SDS_P1;SDS_P2;PMS_P1;PMS_P2;Temp;Humidity;BMP_temperature;BMP_pressure;BME280_temperature;BME280_humidity;BME280_pressure;Samples;Min_cycle;Max_cycle;Signal;HPM_P1;HPM_P2
2023/03/11 00:01:09;;;;;;;;;;;;;;;4.20;76.51;95567.53;5018638;28;20004;-70
2023/03/11 00:03:34;;;;;;;;;;;;;;;4.12;78.16;95568.50;5023246;28;19968;-70
2023/03/11 00:06:00;;;;;;;;;;;;;;;4.11;79.49;95563.47;5023591;28;19924;-70
2023/03/11 00:08:25;;;;;;;;;;;;;;;4.17;83.07;95586.44;5020025;28;19918;-70
2023/03/11 00:10:54;;;;;;;;;;;;;;;4.11;86.86;95569.66;5022391;28;19921;-70
2023/03/11 00:13:19;;;;;;;;;;;;;;;4.01;89.68;95578.31;5019195;28;19918;-70
2023/03/11 00:15:46;;;;;;;;;;;;;;;4.00;91.60;95569.41;5022781;28;19924;-70
2023/03/11 00:18:11;;;;;;;;;;;;;;;3.90;92.81;95567.22;5019980;28;20062;-70
2023/03/11 00:20:38;;;;;;;;;;;;;;;3.85;94.85;95575.59;5025097;28;20028;-71
2023/03/11 00:23:04;;;;;;;;;;;;;;;3.87;95.16;95573.38;5020205;28;20431;-71
2023/03/11 00:25:30;;;;;;;;;;;;;;;3.81;96.43;95583.66;5023694;28;20362;-71
2023/03/11 00:27:55;;;;;;;;;;;;;;;3.89;97.08;95586.53;5022996;28;20022;-71
2023/03/11 00:30:21;;;;;;;;;;;;;;;3.91;97.34;95590.47;5019297;28;20240;-71
2023/03/11 00:32:47;;;;;;;;;;;;;;;3.81;97.03;95578.22;5022043;28;19921;-71
2023/03/11 00:35:14;;;;;;;;;;;;;;;3.77;97.82;95574.66;5019895;28;19928;-69
2023/03/11 00:37:40;;;;;;;;;;;;;;;3.77;98.67;95580.06;5024174;28;19917;-69
2023/03/11 00:40:07;;;;;;;;;;;;;;;3.79;97.68;95585.94;5018064;28;20349;-68
2023/03/11 00:42:33;;;;;;;;;;;;;;;3.88;97.79;95593.09;5024467;28;19924;-68
2023/03/11 00:44:58;;;;;;;;;;;;;;;3.83;98.44;95575.19;5021870;28;20281;-70
2023/03/11 00:47:23;;;;;;;;;;;;;;;3.73;98.59;95568.38;5018326;28;19928;-70
2023/03/11 00:49:48;;;;;;;;;;;;;;;3.91;98.45;95578.88;5023581;28;20324;-69
2023/03/11 00:52:14;;;;;;;;;;;;;;;3.85;98.52;95572.91;5019195;28;19921;-68
2023/03/11 00:54:39;;;;;;;;;;;;;;;3.85;98.52;95570.19;5004262;28;19924;-70
2023/03/11 00:57:04;;;;;;;;;;;;;;;3.82;98.97;95565.50;5018817;28;19924;-70
2023/03/11 00:59:30;;;;;;;;;;;;;;;3.73;99.24;95573.03;5023583;28;20340;-70
2023/03/11 01:01:55;;;;;;;;;;;;;;;3.90;98.92;95569.94;5021932;28;19921;-69
2023/03/11 01:04:20;;;;;;;;;;;;;;;4.07;98.13;95570.69;5019203;28;20955;-70
2023/03/11 01:06:45;;;;;;;;;;;;;;;3.95;98.03;95588.63;5022669;28;19921;-70
2023/03/11 01:09:11;;;;;;;;;;;;;;;3.89;98.03;95575.69;5024752;28;19924;-74
2023/03/11 01:11:36;;;;;;;;;;;;;;;3.82;98.75;95579.81;5026722;28;20005;-71
2023/03/11 01:14:03;;;;;;;;;;;;;;;3.85;98.31;95586.44;5022786;28;19918;-72
2023/03/11 01:16:28;;;;;;;;;;;;;;;3.71;97.91;95599.63;5017639;28;19924;-72
2023/03/11 01:18:53;;;;;;;;;;;;;;;3.67;99.17;95596.84;5022741;28;19917;-72
2023/03/11 01:21:19;;;;;;;;;;;;;;;3.83;98.57;95596.84;5016489;28;19925;-71
2023/03/11 01:23:44;;;;;;;;;;;;;;;3.91;97.97;95590.47;5021774;28;19978;-70
2023/03/11 01:26:09;;;;;;;;;;;;;;;4.08;96.40;95586.59;5017062;28;19921;-70
2023/03/11 01:28:35;;;;;;;;;;;;;;;4.02;96.70;95588.03;5021876;28;19921;-70
2023/03/11 01:31:00;;;;;;;;;;;;;;;3.99;96.91;95586.00;5021257;28;20265;-69
2023/03/11 01:33:25;;;;;;;;;;;;;;;3.97;96.38;95582.88;5017407;28;20392;-70
2023/03/11 01:35:51;;;;;;;;;;;;;;;3.88;95.66;95593.09;5022254;28;20008;-69
2023/03/11 01:38:16;;;;;;;;;;;;;;;3.81;94.77;95597.19;5014850;28;20008;-71
2023/03/11 01:40:43;;;;;;;;;;;;;;;3.95;93.84;95598.69;5022591;28;19921;-69
2023/03/11 01:43:27;;;;;;;;;;;;;;;3.89;93.72;95598.19;5019546;28;19939;-71
2023/03/11 01:45:52;;;;;;;;;;;;;;;3.75;90.83;95598.59;5047520;28;19931;-70
2023/03/11 01:48:17;;;;;;;;;;;;;;;3.90;87.74;95598.94;5042462;28;19906;-70
2023/03/11 01:50:45;;;;;;;;;;;;;;;3.89;87.65;95587.34;5047273;28;19921;-71
2023/03/11 01:53:12;;;;;;;;;;;;;;;3.93;87.14;95607.16;5035215;28;19925;-70
2023/03/11 01:55:37;;;;;;;;;;;;;;;3.92;86.17;95599.38;5040890;28;19905;-70
2023/03/11 01:58:04;;;;;;;;;;;;;;;3.93;85.21;95598.25;5045635;28;19921;-71
2023/03/11 02:00:30;;;;;;;;;;;;;;;3.80;84.43;95595.63;5046246;28;19928;-71
2023/03/11 02:02:57;;;;;;;;;;;;;;;3.89;82.91;95597.38;5047001;28;19917;-70
2023/03/11 02:05:23;;;;;;;;;;;;;;;3.81;83.72;95597.19;5039834;28;19983;-69
2023/03/11 02:07:50;;;;;;;;;;;;;;;3.82;84.53;95581.75;5045147;28;19918;-70
2023/03/11 02:10:15;;;;;;;;;;;;;;;3.59;85.81;95581.56;5039628;28;19928;-69
2023/03/11 02:12:41;;;;;;;;;;;;;;;3.73;86.18;95584.63;5045204;28;19917;-69
2023/03/11 02:15:08;;;;;;;;;;;;;;;3.88;84.93;95595.81;5040775;28;19925;-71
2023/03/11 02:17:35;;;;;;;;;;;;;;;3.78;85.38;95607.94;5044424;28;19997;-71
2023/03/11 02:20:00;;;;;;;;;;;;;;;3.74;86.47;95607.06;5030294;28;19917;-70
2023/03/11 02:22:28;;;;;;;;;;;;;;;3.87;86.49;95605.06;5027535;28;19928;-70
2023/03/11 02:25:12;;;;;;;;;;;;;;;3.90;86.86;95607.06;5032479;28;19921;-71
2023/03/11 02:27:40;;;;;;;;;;;;;;;3.86;86.98;95587.25;5045802;28;19928;-71
2023/03/11 02:30:05;;;;;;;;;;;;;;;3.78;87.71;95588.97;5039905;28;20015;-70
2023/03/11 02:32:31;;;;;;;;;;;;;;;3.68;88.56;95586.81;5028403;28;19948;-70
2023/03/11 02:34:56;;;;;;;;;;;;;;;3.53;88.76;95582.94;5025462;28;19917;-71
2023/03/11 02:37:21;;;;;;;;;;;;;;;3.52;89.85;95587.56;5020744;28;19925;-69
2023/03/11 02:39:48;;;;;;;;;;;;;;;3.50;90.80;95597.97;5025763;28;20004;-71
2023/03/11 02:42:23;;;;;;;;;;;;;;;3.54;90.80;95596.13;5020660;28;19936;-70
2023/03/11 02:44:54;;;;;;;;;;;;;;;3.59;91.57;95604.00;5023903;28;19928;-71
2023/03/11 02:47:20;;;;;;;;;;;;;;;3.54;91.61;95608.91;5020424;28;20353;-69
2023/03/11 02:49:45;;;;;;;;;;;;;;;3.64;89.88;95611.09;5025464;28;19990;-70
2023/03/11 02:52:11;;;;;;;;;;;;;;;3.71;90.05;95613.97;5018542;28;19917;-69
2023/03/11 02:54:37;;;;;;;;;;;;;;;3.66;89.51;95600.69;5023098;28;19917;-70
2023/03/11 02:57:02;;;;;;;;;;;;;;;3.58;90.30;95594.31;5023210;28;20567;-71
2023/03/11 02:59:27;;;;;;;;;;;;;;;3.45;90.62;95604.41;5021658;28;19927;-73
2023/03/11 03:01:53;;;;;;;;;;;;;;;3.40;91.62;95612.81;5024811;28;19932;-71
2023/03/11 03:04:18;;;;;;;;;;;;;;;3.39;92.06;95619.34;5017731;28;19972;-70
2023/03/11 03:06:43;;;;;;;;;;;;;;;3.55;91.08;95626.72;5031279;28;19921;-72
2023/03/11 03:09:08;;;;;;;;;;;;;;;3.59;90.27;95644.63;5034078;28;19967;-69
2023/03/11 03:11:34;;;;;;;;;;;;;;;3.59;91.09;95651.97;5027105;28;19921;-70
2023/03/11 03:13:59;;;;;;;;;;;;;;;3.73;90.81;95651.56;5028225;28;20015;-72
2023/03/11 03:16:24;;;;;;;;;;;;;;;3.81;88.98;95637.81;5023439;28;19932;-70
2023/03/11 03:18:51;;;;;;;;;;;;;;;3.81;88.60;95631.63;5031287;28;19921;-70
2023/03/11 03:21:16;;;;;;;;;;;;;;;3.75;88.25;95631.09;5023266;28;19922;-71
2023/03/11 03:23:41;;;;;;;;;;;;;;;3.82;87.15;95615.03;5024812;28;19924;-71
2023/03/11 03:26:07;;;;;;;;;;;;;;;3.85;86.43;95615.47;5022153;28;20377;-70
2023/03/11 03:28:32;;;;;;;;;;;;;;;3.61;87.10;95615.28;5026929;28;19921;-71
2023/03/11 03:31:04;;;;;;;;;;;;;;;3.64;88.05;95611.09;5024147;28;19943;-70
2023/03/11 03:33:30;;;;;;;;;;;;;;;3.58;89.16;95624.09;5026188;28;20332;-71
2023/03/11 03:35:56;;;;;;;;;;;;;;;3.49;88.89;95619.97;5028516;28;19921;-70
2023/03/11 03:38:21;;;;;;;;;;;;;;;3.46;89.41;95621.47;5020472;28;19932;-71
2023/03/11 03:40:46;;;;;;;;;;;;;;;3.22;90.33;95619.66;5025202;28;20370;-72
2023/03/11 03:43:12;;;;;;;;;;;;;;;3.21;90.32;95612.69;5020164;28;19918;-70
2023/03/11 03:45:37;;;;;;;;;;;;;;;3.16;90.34;95602.09;5024721;28;19925;-71
2023/03/11 03:48:03;;;;;;;;;;;;;;;3.01;90.82;95604.41;5020728;28;19927;-71
2023/03/11 03:50:28;;;;;;;;;;;;;;;3.23;90.56;95611.19;5023751;28;19921;-72
2023/03/11 03:52:53;;;;;;;;;;;;;;;3.40;87.86;95615.53;5025682;28;19925;-71
2023/03/11 03:55:18;;;;;;;;;;;;;;;3.42;88.63;95615.97;5022652;28;19917;-71
2023/03/11 03:57:44;;;;;;;;;;;;;;;3.55;86.68;95605.06;5027933;28;20738;-71
2023/03/11 04:00:09;;;;;;;;;;;;;;;3.34;86.47;95608.78;5020696;28;19925;-69
2023/03/11 04:02:35;;;;;;;;;;;;;;;3.15;86.68;95619.44;5024888;28;20024;-70
2023/03/11 04:05:00;;;;;;;;;;;;;;;2.95;87.32;95624.69;5024312;28;20011;-70
2023/03/11 04:07:25;;;;;;;;;;;;;;;2.98;86.37;95642.19;5019130;28;19967;-69
2023/03/11 04:09:50;;;;;;;;;;;;;;;3.23;85.61;95640.19;5023711;28;19970;-68
2023/03/11 04:12:16;;;;;;;;;;;;;;;3.15;84.40;95639.19;5020052;28;19924;-70
2023/03/11 04:14:42;;;;;;;;;;;;;;;3.20;83.91;95633.53;5022233;28;19971;-69
2023/03/11 04:17:09;;;;;;;;;;;;;;;3.28;81.17;95644.53;5019896;28;19921;-69
2023/03/11 04:19:35;;;;;;;;;;;;;;;3.34;79.39;95627.72;5023217;28;20391;-68
2023/03/11 04:22:00;;;;;;;;;;;;;;;3.33;79.18;95628.06;5023429;28;19921;-69
2023/03/11 04:24:26;;;;;;;;;;;;;;;3.27;79.01;95643.75;5019350;28;20285;-70
2023/03/11 04:26:52;;;;;;;;;;;;;;;3.34;76.88;95645.88;5022859;28;19921;-71
2023/03/11 04:29:18;;;;;;;;;;;;;;;3.21;78.86;95642.44;5019444;28;19921;-70
2023/03/11 04:31:43;;;;;;;;;;;;;;;3.10;78.50;95650.25;5026156;28;19925;-72
2023/03/11 04:34:09;;;;;;;;;;;;;;;3.19;78.23;95650.13;5019413;28;20428;-72
2023/03/11 04:36:34;;;;;;;;;;;;;;;3.02;78.47;95651.19;5023474;28;20055;-69
2023/03/11 04:38:59;;;;;;;;;;;;;;;3.02;78.77;95656.59;5022918;28;19975;-68
2023/03/11 04:41:25;;;;;;;;;;;;;;;2.99;79.27;95644.56;5024024;28;19975;-70
2023/03/11 04:43:50;;;;;;;;;;;;;;;3.11;77.71;95645.63;5029013;28;19917;-70
2023/03/11 04:46:16;;;;;;;;;;;;;;;3.16;77.04;95643.47;5030667;28;20385;-69
2023/03/11 04:48:41;;;;;;;;;;;;;;;3.14;77.95;95645.72;5035554;28;19928;-68
2023/03/11 04:51:06;;;;;;;;;;;;;;;3.09;78.23;95647.91;5021887;28;19925;-68
2023/03/11 04:53:32;;;;;;;;;;;;;;;3.06;78.15;95639.34;5022629;28;19928;-70
2023/03/11 04:55:57;;;;;;;;;;;;;;;2.99;77.34;95647.25;5026612;28;20016;-69
2023/03/11 04:58:22;;;;;;;;;;;;;;;3.07;77.51;95645.53;5021541;28;19979;-70
2023/03/11 05:00:48;;;;;;;;;;;;;;;3.10;77.65;95639.44;5024804;28;19975;-69
2023/03/11 05:03:13;;;;;;;;;;;;;;;3.16;77.75;95645.38;5018184;28;19959;-69
2023/03/11 05:05:38;;;;;;;;;;;;;;;3.18;77.41;95649.31;5004950;28;19963;-70
2023/03/11 05:08:04;;;;;;;;;;;;;;;3.15;78.76;95655.44;5019325;28;19921;-70
2023/03/11 05:10:29;;;;;;;;;;;;;;;3.15;80.02;95657.34;5023090;28;20384;-68
2023/03/11 05:12:54;;;;;;;;;;;;;;;3.13;80.62;95665.00;5023421;28;19921;-70
2023/03/11 05:15:19;;;;;;;;;;;;;;;3.02;79.52;95676.31;5016937;28;19921;-68
2023/03/11 05:17:47;;;;;;;;;;;;;;;3.00;79.34;95678.56;5021487;28;22561;-69
2023/03/11 05:20:12;;;;;;;;;;;;;;;2.84;80.43;95685.81;5016477;28;19982;-69
2023/03/11 05:22:38;;;;;;;;;;;;;;;2.77;78.18;95686.38;5022821;28;20016;-70
2023/03/11 05:25:04;;;;;;;;;;;;;;;2.73;77.87;95687.44;5018942;28;20392;-73
2023/03/11 05:27:29;;;;;;;;;;;;;;;2.66;78.55;95685.28;5022348;28;19925;-68
2023/03/11 05:29:55;;;;;;;;;;;;;;;2.64;78.09;95690.25;5021423;28;19917;-68
2023/03/11 05:32:20;;;;;;;;;;;;;;;2.59;77.95;95690.47;5018113;28;20515;-68
2023/03/11 05:34:45;;;;;;;;;;;;;;;2.66;78.00;95696.88;5023156;28;19921;-69
2023/03/11 05:37:11;;;;;;;;;;;;;;;2.64;77.83;95701.06;5021661;28;19928;-69
2023/03/11 05:39:36;;;;;;;;;;;;;;;2.65;77.44;95708.84;5023994;28;19921;-70
2023/03/11 05:42:02;;;;;;;;;;;;;;;2.60;77.15;95706.38;5021462;28;19925;-71
2023/03/11 05:44:28;;;;;;;;;;;;;;;2.67;76.61;95703.09;5019994;28;19921;-68
2023/03/11 05:46:53;;;;;;;;;;;;;;;2.61;77.19;95712.53;5022650;28;20321;-69
2023/03/11 05:49:20;;;;;;;;;;;;;;;2.57;77.51;95709.72;5018097;28;19917;-68
2023/03/11 05:51:45;;;;;;;;;;;;;;;2.61;76.05;95709.84;5023578;28;19917;-69
2023/03/11 05:54:13;;;;;;;;;;;;;;;2.55;74.26;95703.09;5017105;28;20318;-69
2023/03/11 05:56:39;;;;;;;;;;;;;;;2.49;74.34;95699.84;5022243;28;20046;-71
2023/03/11 05:59:04;;;;;;;;;;;;;;;2.44;75.78;95694.66;5019076;28;20362;-68
2023/03/11 06:01:30;;;;;;;;;;;;;;;2.51;75.99;95694.09;5030575;28;19921;-68
2023/03/11 06:03:55;;;;;;;;;;;;;;;2.44;76.90;95691.97;5029465;28;19964;-69
2023/03/11 06:06:21;;;;;;;;;;;;;;;2.50;76.19;95693.28;5017502;28;20445;-69
2023/03/11 06:08:48;;;;;;;;;;;;;;;2.53;75.08;95691.84;5022333;28;19917;-69
2023/03/11 06:11:14;;;;;;;;;;;;;;;2.52;76.61;95693.78;5018343;28;20007;-69
2023/03/11 06:13:39;;;;;;;;;;;;;;;2.46;74.54;95692.41;5023286;28;19960;-67
2023/03/11 06:16:05;;;;;;;;;;;;;;;2.56;73.44;95691.97;5012648;28;19924;-69
2023/03/11 06:18:31;;;;;;;;;;;;;;;2.56;73.70;95705.47;5021087;28;19928;-70
2023/03/11 06:20:59;;;;;;;;;;;;;;;2.64;72.62;95711.88;5021958;28;19933;-69
2023/03/11 06:23:25;;;;;;;;;;;;;;;2.59;72.95;95712.09;5017348;28;20377;-69
2023/03/11 06:25:57;;;;;;;;;;;;;;;2.61;72.40;95710.66;5021016;28;19924;-69
2023/03/11 06:28:22;;;;;;;;;;;;;;;2.45;71.78;95718.66;5018058;28;20780;-69
2023/03/11 06:30:48;;;;;;;;;;;;;;;2.57;70.95;95717.84;5024822;28;20003;-69
2023/03/11 06:33:13;;;;;;;;;;;;;;;2.60;73.25;95730.69;5020212;28;19921;-69
2023/03/11 06:35:39;;;;;;;;;;;;;;;2.56;72.43;95735.22;5024873;28;20027;-70
2023/03/11 06:38:04;;;;;;;;;;;;;;;2.61;71.38;95734.19;5020019;28;20024;-70
2023/03/11 06:40:30;;;;;;;;;;;;;;;2.65;72.12;95737.81;5025010;28;19921;-69
2023/03/11 06:42:55;;;;;;;;;;;;;;;2.61;71.96;95745.81;5025099;28;19917;-69
2023/03/11 06:45:20;;;;;;;;;;;;;;;2.63;72.01;95740.06;5019443;28;20553;-70
2023/03/11 06:47:46;;;;;;;;;;;;;;;2.63;72.21;95748.16;5024941;28;19921;-71
2023/03/11 06:50:11;;;;;;;;;;;;;;;2.62;72.44;95743.88;5019986;28;20259;-71
2023/03/11 06:52:36;;;;;;;;;;;;;;;2.61;73.02;95745.81;5024275;28;20015;-69
2023/03/11 06:55:02;;;;;;;;;;;;;;;2.48;73.80;95757.72;5025440;28;20000;-71
2023/03/11 06:57:29;;;;;;;;;;;;;;;2.52;73.44;95753.22;5020861;28;19924;-70
2023/03/11 06:59:55;;;;;;;;;;;;;;;2.47;73.63;95756.16;5025224;28;20382;-67
2023/03/11 07:02:20;;;;;;;;;;;;;;;2.51;73.71;95767.09;5018107;28;19925;-69
2023/03/11 07:04:47;;;;;;;;;;;;;;;2.55;73.71;95768.75;5026282;28;19921;-69
2023/03/11 07:07:13;;;;;;;;;;;;;;;2.56;72.91;95778.47;5020971;28;19929;-71
2023/03/11 07:09:38;;;;;;;;;;;;;;;2.54;74.09;95780.72;5022538;28;19983;-69
2023/03/11 07:12:03;;;;;;;;;;;;;;;2.47;72.70;95773.16;5021217;28;20309;-73
2023/03/11 07:14:29;;;;;;;;;;;;;;;2.53;74.16;95773.72;5022639;28;19917;-71
2023/03/11 07:16:54;;;;;;;;;;;;;;;2.60;71.95;95781.28;5023333;28;20394;-67
2023/03/11 07:19:19;;;;;;;;;;;;;;;2.65;70.54;95789.16;5020329;28;19924;-68
2023/03/11 07:21:44;;;;;;;;;;;;;;;2.62;70.02;95789.84;5023639;28;20436;-68
2023/03/11 07:24:11;;;;;;;;;;;;;;;2.68;68.42;95802.81;5018645;28;19917;-68
2023/03/11 07:26:36;;;;;;;;;;;;;;;2.61;68.19;95801.75;5022912;28;19924;-68
2023/03/11 07:29:02;;;;;;;;;;;;;;;2.57;67.85;95796.25;5022773;28;19921;-76
2023/03/11 07:31:28;;;;;;;;;;;;;;;2.69;67.21;95800.88;5021489;28;19921;-72
2023/03/11 07:33:55;;;;;;;;;;;;;;;2.73;64.97;95801.00;5022698;28;19921;-68
2023/03/11 07:36:21;;;;;;;;;;;;;;;2.67;64.51;95800.44;5019468;28;20405;-67
2023/03/11 07:38:47;;;;;;;;;;;;;;;2.63;64.85;95802.25;5025671;28;19956;-68
2023/03/11 07:41:13;;;;;;;;;;;;;;;2.60;64.74;95805.59;5018068;28;20144;-68
2023/03/11 07:43:40;;;;;;;;;;;;;;;2.69;65.03;95800.88;5022611;28;19917;-69
2023/03/11 07:46:05;;;;;;;;;;;;;;;2.73;64.50;95801.00;5020290;28;20004;-68
2023/03/11 07:48:30;;;;;;;;;;;;;;;2.76;65.26;95809.22;5006043;28;19988;-68
2023/03/11 07:51:16;;;;;;;;;;;;;;;2.68;65.72;95813.63;5025071;28;19918;-68
2023/03/11 07:53:41;;;;;;;;;;;;;;;2.68;65.66;95812.81;5025962;28;19921;-68
2023/03/11 07:56:07;;;;;;;;;;;;;;;2.62;65.74;95803.34;5020789;28;19917;-68
2023/03/11 07:58:33;;;;;;;;;;;;;;;2.77;66.66;95805.38;5021946;28;19963;-69
2023/03/11 08:01:17;;;;;;;;;;;;;;;2.83;65.79;95817.56;5023519;28;19924;-68
2023/03/11 08:03:44;;;;;;;;;;;;;;;2.77;65.35;95813.47;5021197;28;20281;-67
2023/03/11 08:06:13;;;;;;;;;;;;;;;2.91;65.29;95807.75;5014562;28;20435;-69
2023/03/11 08:08:38;;;;;;;;;;;;;;;2.93;65.99;95810.91;5023448;28;19924;-68
2023/03/11 08:11:04;;;;;;;;;;;;;;;3.02;65.95;95808.09;5020452;28;20007;-71
2023/03/11 08:13:29;;;;;;;;;;;;;;;3.05;66.06;95804.72;5021728;28;19952;-68
2023/03/11 08:15:54;;;;;;;;;;;;;;;3.10;65.45;95814.50;5022863;28;20289;-69
2023/03/11 08:18:20;;;;;;;;;;;;;;;3.06;66.53;95828.72;5017505;28;19917;-69
2023/03/11 08:20:45;;;;;;;;;;;;;;;3.05;66.29;95829.84;5024246;28;20012;-68
2023/03/11 08:23:10;;;;;;;;;;;;;;;3.12;65.44;95820.38;5019628;28;19917;-67
2023/03/11 08:25:39;;;;;;;;;;;;;;;3.02;65.85;95816.97;5023307;28;19918;-69
2023/03/11 08:28:06;;;;;;;;;;;;;;;3.10;65.99;95814.50;5025767;28;19967;-71
2023/03/11 08:30:32;;;;;;;;;;;;;;;3.12;65.41;95796.81;5028406;28;19917;-68
2023/03/11 08:32:57;;;;;;;;;;;;;;;3.11;66.15;95819.56;5024174;28;19936;-68
2023/03/11 08:35:22;;;;;;;;;;;;;;;3.05;66.69;95824.41;5018734;28;20366;-68
2023/03/11 08:37:48;;;;;;;;;;;;;;;3.15;65.48;95839.44;5022913;28;20417;-69
2023/03/11 08:40:13;;;;;;;;;;;;;;;3.03;65.99;95850.25;5016271;28;19921;-67
2023/03/11 08:42:38;;;;;;;;;;;;;;;3.10;66.45;95847.78;5022853;28;19956;-70
2023/03/11 08:45:04;;;;;;;;;;;;;;;3.08;66.25;95851.91;5017654;28;19917;-68
2023/03/11 08:47:32;;;;;;;;;;;;;;;3.02;66.17;95845.97;5022894;28;19917;-68
2023/03/11 08:49:58;;;;;;;;;;;;;;;3.13;64.85;95840.88;5024252;28;20522;-70
2023/03/11 08:52:23;;;;;;;;;;;;;;;2.97;65.06;95857.81;5017823;28;20161;-67
2023/03/11 08:54:48;;;;;;;;;;;;;;;3.04;66.17;95859.94;5023276;28;19964;-70
2023/03/11 08:57:13;;;;;;;;;;;;;;;2.91;66.02;95863.78;5017646;28;19971;-69
2023/03/11 08:59:39;;;;;;;;;;;;;;;2.85;66.20;95855.09;5022512;28;20441;-71
2023/03/11 09:02:04;;;;;;;;;;;;;;;2.94;65.98;95863.88;5018908;28;19925;-73
2023/03/11 09:04:29;;;;;;;;;;;;;;;2.91;65.55;95861.84;5023144;28;19917;-70
2023/03/11 09:06:55;;;;;;;;;;;;;;;3.16;63.81;95859.16;5022122;28;19917;-71
2023/03/11 09:09:20;;;;;;;;;;;;;;;3.26;62.86;95872.22;5018657;28;19917;-70
2023/03/11 09:11:46;;;;;;;;;;;;;;;3.15;64.09;95873.78;5021478;28;20435;-69
2023/03/11 09:14:11;;;;;;;;;;;;;;;3.36;64.17;95871.75;5019047;28;20009;-70
2023/03/11 09:16:37;;;;;;;;;;;;;;;3.40;62.52;95874.56;5023156;28;19971;-71
2023/03/11 09:19:05;;;;;;;;;;;;;;;3.57;61.12;95877.03;5019731;28;20024;-75
2023/03/11 09:21:31;;;;;;;;;;;;;;;3.75;60.39;95874.84;5020806;28;20378;-68
2023/03/11 09:23:56;;;;;;;;;;;;;;;4.02;59.40;95878.72;5022675;28;19974;-72
2023/03/11 09:26:21;;;;;;;;;;;;;;;4.21;58.17;95880.81;5018120;28;19971;-70
2023/03/11 09:28:47;;;;;;;;;;;;;;;4.53;57.23;95883.59;5021481;28;19948;-69
2023/03/11 09:31:13;;;;;;;;;;;;;;;4.48;56.73;95889.25;5018184;28;19924;-69
2023/03/11 09:33:40;;;;;;;;;;;;;;;4.67;56.60;95888.59;5021334;28;19921;-70
2023/03/11 09:36:06;;;;;;;;;;;;;;;5.00;55.11;95889.41;5018813;28;19917;-70
2023/03/11 09:38:31;;;;;;;;;;;;;;;5.10;54.03;95900.53;5024877;28;19925;-69
2023/03/11 09:40:59;;;;;;;;;;;;;;;4.75;53.83;95901.22;5036403;28;19948;-71
2023/03/11 09:43:25;;;;;;;;;;;;;;;4.61;54.62;95898.16;5031748;28;19917;-71
2023/03/11 09:45:55;;;;;;;;;;;;;;;4.72;54.55;95901.91;5027808;28;20261;-70
2023/03/11 09:48:31;;;;;;;;;;;;;;;5.00;51.33;95911.91;5020400;28;19917;-70
2023/03/11 09:51:02;;;;;;;;;;;;;;;5.33;49.59;95903.41;5036124;28;19996;-70
2023/03/11 09:53:31;;;;;;;;;;;;;;;5.26;49.21;95899.75;5019556;28;19921;-69
2023/03/11 09:56:02;;;;;;;;;;;;;;;5.01;51.24;95905.34;5022803;28;19901;-72
2023/03/11 09:58:37;;;;;;;;;;;;;;;4.94;53.06;95902.47;5018954;28;20412;-71
2023/03/11 10:01:11;;;;;;;;;;;;;;;5.03;50.27;95919.34;5022304;28;19922;-70
2023/03/11 10:03:37;;;;;;;;;;;;;;;4.74;51.19;95907.00;5016043;28;19918;-70
2023/03/11 10:06:13;;;;;;;;;;;;;;;4.87;50.23;95910.41;5028817;28;19924;-70
2023/03/11 10:08:42;;;;;;;;;;;;;;;5.76;48.22;95909.03;5009675;28;19917;-71
2023/03/11 10:11:19;;;;;;;;;;;;;;;6.67;46.38;95902.38;5022197;28;19917;-70
2023/03/11 10:13:52;;;;;;;;;;;;;;;7.40;43.73;95907.09;5027547;28;19917;-72
2023/03/11 10:16:20;;;;;;;;;;;;;;;8.09;41.29;95908.88;5021296;28;19921;-70
2023/03/11 10:18:54;;;;;;;;;;;;;;;7.26;43.17;95913.91;5026801;28;19921;-71
2023/03/11 10:21:38;;;;;;;;;;;;;;;6.86;41.39;95914.34;5025399;28;19944;-71
2023/03/11 10:24:04;;;;;;;;;;;;;;;6.26;41.65;95910.13;5028058;28;19928;-71
2023/03/11 10:26:33;;;;;;;;;;;;;;;6.94;41.52;95918.00;5025697;28;19917;-71
2023/03/11 10:29:06;;;;;;;;;;;;;;;7.87;39.17;95897.69;5027871;28;19917;-71
2023/03/11 10:31:31;;;;;;;;;;;;;;;8.29;40.85;95902.13;5025965;28;19940;-71
2023/03/11 10:34:00;;;;;;;;;;;;;;;9.56;37.25;95907.69;5025918;28;19917;-71
2023/03/11 10:36:33;;;;;;;;;;;;;;;9.86;35.29;95910.25;5020892;28;20361;-71
2023/03/11 10:38:59;;;;;;;;;;;;;;;9.30;33.50;95911.41;5027661;28;19925;-70
2023/03/11 10:41:42;;;;;;;;;;;;;;;10.64;34.36;95906.38;5021509;28;19927;-70
2023/03/11 10:44:12;;;;;;;;;;;;;;;7.10;36.59;95910.53;5022137;28;20016;-72
2023/03/11 10:46:38;;;;;;;;;;;;;;;7.61;38.60;95907.44;5026159;28;19963;-71
2023/03/11 10:49:04;;;;;;;;;;;;;;;9.01;38.09;95905.66;5025481;28;19921;-72
2023/03/11 10:51:33;;;;;;;;;;;;;;;8.01;42.46;95897.09;5027992;28;19933;-72
2023/03/11 10:53:59;;;;;;;;;;;;;;;7.75;41.96;95897.91;5028204;28;20262;-71
2023/03/11 10:56:26;;;;;;;;;;;;;;;8.10;42.15;95905.00;5021529;28;19917;-70
2023/03/11 10:58:51;;;;;;;;;;;;;;;8.07;41.75;95908.44;5024218;28;19917;-73
2023/03/11 11:01:17;;;;;;;;;;;;;;;8.24;41.67;95903.22;5020279;28;20344;-71
2023/03/11 11:03:44;;;;;;;;;;;;;;;8.77;41.50;95899.59;5030027;28;19979;-71
2023/03/11 11:06:21;;;;;;;;;;;;;;;7.62;41.72;95897.34;5024055;28;19925;-72
2023/03/11 11:08:47;;;;;;;;;;;;;;;8.08;41.98;95886.25;5025335;28;19940;-71
2023/03/11 11:11:20;;;;;;;;;;;;;;;8.28;41.61;95886.13;5020577;28;19921;-71
2023/03/11 11:13:54;;;;;;;;;;;;;;;8.10;42.49;95891.34;5026438;28;19928;-70
2023/03/11 11:16:19;;;;;;;;;;;;;;;7.83;43.52;95892.19;5017893;28;20012;-72
2023/03/11 11:19:04;;;;;;;;;;;;;;;8.00;42.74;95895.53;5025668;28;20055;-71
2023/03/11 11:21:37;;;;;;;;;;;;;;;8.69;40.82;95897.94;5026111;28;19925;-70
2023/03/11 11:24:22;;;;;;;;;;;;;;;7.75;41.54;95895.97;5024736;28;19931;-71
2023/03/11 11:27:06;;;;;;;;;;;;;;;7.37;44.66;95884.09;5037790;28;20397;-70
2023/03/11 11:29:33;;;;;;;;;;;;;;;7.52;43.15;95878.88;5025938;28;20029;-70
2023/03/11 11:32:14;;;;;;;;;;;;;;;7.07;45.42;95884.78;5026402;28;19928;-71
2023/03/11 11:34:40;;;;;;;;;;;;;;;6.38;46.62;95892.09;5026633;28;20067;-69
2023/03/11 11:37:11;;;;;;;;;;;;;;;6.97;45.25;95890.03;5020887;28;19917;-70
2023/03/11 11:39:50;;;;;;;;;;;;;;;7.26;42.70;95892.09;5025583;28;19917;-71
2023/03/11 11:42:16;;;;;;;;;;;;;;;7.41;42.36;95886.88;5018965;28;20293;-70
2023/03/11 11:44:42;;;;;;;;;;;;;;;7.04;43.26;95896.41;5024120;28;19917;-70
2023/03/11 11:47:18;;;;;;;;;;;;;;;7.31;43.37;95890.22;5018112;28;19921;-72
2023/03/11 11:49:50;;;;;;;;;;;;;;;7.59;41.48;95885.22;5024053;28;19928;-69
2023/03/11 11:52:35;;;;;;;;;;;;;;;7.33;41.76;95882.47;5020099;28;19921;-70
2023/03/11 11:55:02;;;;;;;;;;;;;;;7.58;42.23;95880.94;5023881;28;19935;-70
2023/03/11 11:57:28;;;;;;;;;;;;;;;7.14;42.64;95873.22;5021062;28;20281;-70
2023/03/11 11:59:53;;;;;;;;;;;;;;;6.93;43.27;95870.16;5022228;28;20007;-71
2023/03/11 12:02:38;;;;;;;;;;;;;;;7.50;42.25;95868.34;5016014;28;20040;-69
2023/03/11 12:05:22;;;;;;;;;;;;;;;8.00;41.93;95863.56;5019906;28;19928;-75
2023/03/11 12:07:58;;;;;;;;;;;;;;;8.81;41.29;95872.31;5024852;28;19917;-70
2023/03/11 12:10:30;;;;;;;;;;;;;;;8.93;40.76;95865.78;5017937;28;20036;-70
2023/03/11 12:13:14;;;;;;;;;;;;;;;9.54;39.29;95866.28;5021159;28;19921;-70
2023/03/11 12:15:58;;;;;;;;;;;;;;;10.30;37.54;95859.28;5021919;28;19940;-68
2023/03/11 12:18:34;;;;;;;;;;;;;;;10.57;37.02;95859.78;5018535;28;20493;-69
2023/03/11 12:21:02;;;;;;;;;;;;;;;10.27;36.33;95862.78;5023300;28;19921;-70
2023/03/11 12:23:37;;;;;;;;;;;;;;;10.30;37.83;95862.03;5001901;28;19988;-70
2023/03/11 12:26:05;;;;;;;;;;;;;;;10.15;39.47;95861.16;5021482;28;19921;-72
2023/03/11 12:28:31;;;;;;;;;;;;;;;10.23;39.26;95862.78;5023038;28;19952;-69
2023/03/11 12:30:59;;;;;;;;;;;;;;;10.50;40.04;95855.06;5023132;28;19960;-70
2023/03/11 12:33:35;;;;;;;;;;;;;;;10.32;39.35;95848.75;5016321;28;20352;-69
2023/03/11 12:36:01;;;;;;;;;;;;;;;10.62;39.52;95856.66;5022435;28;19924;-71
2023/03/11 12:38:31;;;;;;;;;;;;;;;9.33;41.05;95848.56;5019899;28;19921;-69
2023/03/11 12:40:57;;;;;;;;;;;;;;;9.28;43.28;95842.69;5021962;28;19928;-70
2023/03/11 12:43:22;;;;;;;;;;;;;;;9.08;43.58;95842.91;5018161;28;20640;-71
2023/03/11 12:45:48;;;;;;;;;;;;;;;8.66;43.69;95833.19;5020873;28;20350;-69
2023/03/11 12:48:25;;;;;;;;;;;;;;;8.44;44.43;95836.84;5018853;28;19928;-70
2023/03/11 12:50:51;;;;;;;;;;;;;;;8.05;44.21;95829.75;5022499;28;19917;-69
2023/03/11 12:53:16;;;;;;;;;;;;;;;7.07;48.40;95824.88;5017164;28;19947;-71
2023/03/11 12:56:00;;;;;;;;;;;;;;;7.04;48.62;95825.63;5023803;28;19964;-70
2023/03/11 12:58:39;;;;;;;;;;;;;;;6.77;50.22;95835.69;5000085;28;20011;-70